createdAt,value
2023-02-06T00:00:17.730Z,0.78
2023-02-06T00:01:17.928Z,0.78
2023-02-06T00:02:17.966Z,0.84
2023-02-06T00:03:17.664Z,0.81
2023-02-06T00:04:17.662Z,0.81
2023-02-06T00:05:17.665Z,0.81
2023-02-06T00:06:17.677Z,0.78
2023-02-06T00:07:17.640Z,0.92
2023-02-06T00:08:17.663Z,0.94
2023-02-06T00:09:17.604Z,0.88
2023-02-06T00:10:17.592Z,0.91
2023-02-06T00:11:17.535Z,0.92
2023-02-06T00:12:17.516Z,0.88
2023-02-06T00:13:17.545Z,0.87
2023-02-06T00:14:17.519Z,0.88
2023-02-06T00:15:17.595Z,0.92
2023-02-06T00:16:17.558Z,0.87
2023-02-06T00:17:17.530Z,0.96
2023-02-06T00:18:17.724Z,0.91
2023-02-06T00:19:17.431Z,0.92
2023-02-06T00:20:17.415Z,0.92
2023-02-06T00:21:17.402Z,0.87
2023-02-06T00:22:17.598Z,0.92
2023-02-06T00:23:17.364Z,0.92
2023-02-06T00:24:17.344Z,0.96
2023-02-06T00:25:17.417Z,0.92
2023-02-06T00:26:17.325Z,0.94
2023-02-06T00:27:17.297Z,0.95
2023-02-06T00:28:17.423Z,0.94
2023-02-06T00:29:17.254Z,0.98
2023-02-06T00:30:17.242Z,0.91
2023-02-06T00:31:17.349Z,0.91
2023-02-06T00:32:17.316Z,0.94
2023-02-06T00:33:17.218Z,0.94
2023-02-06T00:34:17.429Z,0.98
2023-02-06T00:35:17.171Z,0.95
2023-02-06T00:36:17.228Z,1.04
2023-02-06T00:37:17.148Z,0.94
2023-02-06T00:38:17.128Z,1.06
2023-02-06T00:39:17.189Z,0.94
2023-02-06T00:40:17.121Z,0.98
2023-02-06T00:41:17.086Z,1.02
2023-02-06T00:42:17.108Z,1.05
2023-02-06T00:43:17.063Z,1.02
2023-02-06T00:44:17.252Z,0.99
2023-02-06T00:45:17.040Z,1.01
2023-02-06T00:46:17.096Z,1.04
2023-02-06T00:47:16.991Z,1.01
2023-02-06T00:48:17.005Z,1.08
2023-02-06T00:49:16.996Z,1.06
2023-02-06T00:50:17.002Z,1.05
2023-02-06T00:51:16.973Z,1.06
2023-02-06T00:52:16.941Z,1.06
2023-02-06T00:53:16.917Z,1.05
2023-02-06T00:54:16.912Z,1.06
2023-02-06T00:55:16.877Z,1.06
2023-02-06T00:56:16.869Z,1.04
2023-02-06T00:57:16.833Z,1.08
2023-02-06T00:58:17.053Z,1.06
2023-02-06T00:59:16.819Z,1.01
2023-02-06T01:00:16.881Z,1.02
2023-02-06T01:01:16.897Z,1.05
2023-02-06T01:02:16.773Z,1.05
2023-02-06T01:03:16.781Z,1.10
2023-02-06T01:04:16.950Z,1.08
2023-02-06T01:05:16.744Z,1.10
2023-02-06T01:06:16.859Z,1.06
2023-02-06T01:07:16.755Z,1.08
2023-02-06T01:08:16.690Z,1.10
2023-02-06T01:09:16.668Z,1.05
2023-02-06T01:10:16.630Z,1.04
2023-02-06T01:11:16.660Z,1.08
2023-02-06T01:12:16.666Z,1.04
2023-02-06T01:13:16.575Z,1.10
2023-02-06T01:14:16.586Z,1.12
2023-02-06T01:15:16.583Z,1.05
2023-02-06T01:16:16.627Z,1.19
2023-02-06T01:17:16.534Z,1.13
2023-02-06T01:18:16.526Z,1.06
2023-02-06T01:19:16.491Z,1.08
2023-02-06T01:20:16.482Z,1.06
2023-02-06T01:21:16.704Z,1.13
2023-02-06T01:22:16.460Z,1.02
2023-02-06T01:23:16.445Z,1.14
2023-02-06T01:24:16.428Z,1.14
2023-02-06T01:25:16.433Z,1.14
2023-02-06T01:26:16.390Z,1.04
2023-02-06T01:27:16.382Z,1.08
2023-02-06T01:28:16.407Z,1.16
2023-02-06T01:29:16.341Z,1.02
2023-02-06T01:30:16.323Z,1.10
2023-02-06T01:31:16.374Z,1.04
2023-02-06T01:32:16.304Z,1.20
2023-02-06T01:33:16.307Z,1.14
2023-02-06T01:34:16.276Z,1.02
2023-02-06T01:35:16.262Z,1.02
2023-02-06T01:36:16.241Z,1.06
2023-02-06T01:37:16.243Z,1.02
2023-02-06T01:38:16.208Z,1.04
2023-02-06T01:39:16.397Z,1.05
2023-02-06T01:40:16.172Z,0.99
2023-02-06T01:41:16.181Z,1.04
2023-02-06T01:42:16.143Z,1.12
2023-02-06T01:43:16.337Z,1.14
2023-02-06T01:44:16.541Z,1.17
2023-02-06T01:45:16.102Z,1.13
2023-02-06T01:46:16.206Z,1.12
2023-02-06T01:47:16.070Z,1.14
2023-02-06T01:48:16.071Z,1.17
2023-02-06T01:49:16.230Z,1.16
2023-02-06T01:50:16.052Z,1.14
2023-02-06T01:51:16.011Z,1.17
2023-02-06T01:52:16.051Z,1.16
2023-02-06T01:53:16.300Z,1.17
2023-02-06T01:54:15.987Z,1.20
2023-02-06T01:55:15.958Z,1.22
2023-02-06T01:56:15.928Z,1.22
2023-02-06T01:57:15.939Z,1.22
2023-02-06T01:58:16.101Z,1.20
2023-02-06T01:59:15.882Z,1.14
2023-02-06T02:00:15.868Z,1.17
2023-02-06T02:01:15.857Z,1.23
2023-02-06T02:02:16.101Z,1.24
2023-02-06T02:03:15.838Z,1.20
2023-02-06T02:04:16.212Z,1.22
2023-02-06T02:05:15.820Z,1.24
2023-02-06T02:06:15.784Z,1.22
2023-02-06T02:07:15.763Z,1.22
2023-02-06T02:08:15.744Z,1.22
2023-02-06T02:09:15.850Z,1.20
2023-02-06T02:10:15.739Z,1.24
2023-02-06T02:11:15.712Z,1.23
2023-02-06T02:12:15.699Z,1.17
2023-02-06T02:13:15.691Z,1.16
2023-02-06T02:14:15.669Z,1.22
2023-02-06T02:15:15.644Z,1.14
2023-02-06T02:16:15.714Z,1.08
2023-02-06T02:17:15.629Z,1.10
2023-02-06T02:18:15.603Z,1.12
2023-02-06T02:19:15.600Z,1.05
2023-02-06T02:20:15.590Z,1.04
2023-02-06T02:21:15.584Z,1.06
2023-02-06T02:22:15.567Z,1.10
2023-02-06T02:23:15.562Z,1.10
2023-02-06T02:24:15.514Z,1.05
2023-02-06T02:25:15.563Z,1.10
2023-02-06T02:26:15.531Z,1.06
2023-02-06T02:27:15.508Z,1.16
2023-02-06T02:28:15.496Z,1.04
2023-02-06T02:29:15.701Z,1.04
2023-02-06T02:30:15.476Z,1.19
2023-02-06T02:31:15.482Z,1.10
2023-02-06T02:32:15.414Z,1.14
2023-02-06T02:33:15.419Z,1.06
2023-02-06T02:34:15.406Z,1.04
2023-02-06T02:35:15.556Z,1.05
2023-02-06T02:36:15.350Z,1.04
2023-02-06T02:37:15.330Z,1.01
2023-02-06T02:38:15.344Z,1.12
2023-02-06T02:39:15.495Z,1.06
2023-02-06T02:40:15.477Z,1.04
2023-02-06T02:41:15.353Z,1.08
2023-02-06T02:42:15.260Z,1.13
2023-02-06T02:43:15.235Z,0.99
2023-02-06T02:44:15.252Z,1.13
2023-02-06T02:45:15.198Z,1.13
2023-02-06T02:46:15.200Z,1.05
2023-02-06T02:47:15.179Z,1.10
2023-02-06T02:48:15.152Z,1.10
2023-02-06T02:49:15.352Z,1.10
2023-02-06T02:50:15.157Z,1.10
2023-02-06T02:51:15.108Z,1.12
2023-02-06T02:52:15.105Z,1.05
2023-02-06T02:53:15.100Z,1.04
2023-02-06T02:54:15.255Z,1.10
2023-02-06T02:55:15.087Z,1.08
2023-02-06T02:56:15.019Z,1.06
2023-02-06T02:57:15.060Z,1.05
2023-02-06T02:58:15.023Z,1.05
2023-02-06T02:59:14.994Z,1.02
2023-02-06T03:00:14.987Z,1.02
2023-02-06T03:01:14.991Z,1.02
2023-02-06T03:02:15.006Z,0.98
2023-02-06T03:03:14.940Z,1.04
2023-02-06T03:04:15.131Z,1.01
2023-02-06T03:05:14.900Z,1.04
2023-02-06T03:06:14.895Z,1.04
2023-02-06T03:07:14.869Z,1.01
2023-02-06T03:08:14.842Z,0.98
2023-02-06T03:09:14.858Z,1.06
2023-02-06T03:10:14.813Z,1.04
2023-02-06T03:11:15.029Z,1.04
2023-02-06T03:12:14.786Z,1.02
2023-02-06T03:13:14.996Z,1.06
2023-02-06T03:14:14.808Z,1.01
2023-02-06T03:15:14.734Z,1.05
2023-02-06T03:16:14.780Z,1.02
2023-02-06T03:17:14.714Z,1.04
2023-02-06T03:18:14.711Z,1.06
2023-02-06T03:19:14.716Z,1.10
2023-02-06T03:20:14.677Z,1.10
2023-02-06T03:21:14.642Z,1.12
2023-02-06T03:22:14.869Z,1.04
2023-02-06T03:23:14.620Z,1.05
2023-02-06T03:24:14.612Z,1.08
2023-02-06T03:25:14.603Z,1.05
2023-02-06T03:26:14.573Z,1.13
2023-02-06T03:27:14.754Z,1.17
2023-02-06T03:28:14.654Z,1.22
2023-02-06T03:29:14.722Z,1.14
2023-02-06T03:30:14.748Z,1.12
2023-02-06T03:31:14.546Z,1.17
2023-02-06T03:32:14.509Z,1.17
2023-02-06T03:33:14.463Z,1.02
2023-02-06T03:34:14.669Z,1.13
2023-02-06T03:35:14.490Z,1.08
2023-02-06T03:36:14.422Z,1.14
2023-02-06T03:37:14.651Z,1.16
2023-02-06T03:38:14.420Z,1.17
2023-02-06T03:39:14.392Z,1.12
2023-02-06T03:40:14.395Z,1.17
2023-02-06T03:41:14.376Z,1.16
2023-02-06T03:42:14.354Z,1.16
2023-02-06T03:43:14.331Z,1.20
2023-02-06T03:44:14.316Z,1.22
2023-02-06T03:45:14.295Z,1.22
2023-02-06T03:46:14.311Z,1.16
2023-02-06T03:47:14.258Z,1.23
2023-02-06T03:48:14.234Z,1.22
2023-02-06T03:49:14.241Z,1.24
2023-02-06T03:50:14.250Z,1.20
2023-02-06T03:51:14.217Z,1.24
2023-02-06T03:52:14.226Z,1.17
2023-02-06T03:53:14.286Z,1.14
2023-02-06T03:54:14.192Z,1.19
2023-02-06T03:55:14.145Z,1.17
2023-02-06T03:56:14.140Z,1.19
2023-02-06T03:57:14.940Z,1.17
2023-02-06T03:58:14.131Z,1.23
2023-02-06T03:59:14.092Z,1.23
2023-02-06T04:00:14.091Z,1.24
2023-02-06T04:01:14.153Z,1.23
2023-02-06T04:02:14.092Z,1.26
2023-02-06T04:03:14.058Z,1.23
2023-02-06T04:04:14.014Z,1.26
2023-02-06T04:05:14.003Z,1.23
2023-02-06T04:06:14.002Z,1.26
2023-02-06T04:07:14.178Z,1.30
2023-02-06T04:08:13.957Z,1.31
2023-02-06T04:09:13.946Z,1.23
2023-02-06T04:10:13.918Z,1.23
2023-02-06T04:11:13.911Z,1.24
2023-02-06T04:12:13.902Z,1.24
2023-02-06T04:13:13.898Z,1.26
2023-02-06T04:14:13.854Z,1.20
2023-02-06T04:15:13.856Z,1.23
2023-02-06T04:16:13.834Z,1.26
2023-02-06T04:17:17.026Z,1.20
2023-02-06T04:18:13.805Z,1.26
2023-02-06T04:19:13.791Z,1.20
2023-02-06T04:20:13.763Z,1.20
2023-02-06T04:21:13.754Z,1.24
2023-02-06T04:22:13.777Z,1.26
2023-02-06T04:23:13.753Z,1.26
2023-02-06T04:24:13.714Z,1.28
2023-02-06T04:25:13.718Z,1.17
2023-02-06T04:26:13.714Z,1.28
2023-02-06T04:27:13.681Z,1.23
2023-02-06T04:28:13.747Z,1.30
2023-02-06T04:29:13.636Z,1.26
2023-02-06T04:30:13.666Z,1.20
2023-02-06T04:31:13.839Z,1.20
2023-02-06T04:32:13.622Z,1.23
2023-02-06T04:33:13.624Z,1.30
2023-02-06T04:34:13.565Z,1.20
2023-02-06T04:35:13.543Z,1.28
2023-02-06T04:36:13.730Z,1.23
2023-02-06T04:37:13.504Z,1.30
2023-02-06T04:38:13.507Z,1.31
2023-02-06T04:39:13.494Z,1.32
2023-02-06T04:40:13.695Z,1.31
2023-02-06T04:41:13.488Z,1.23
2023-02-06T04:42:13.436Z,1.32
2023-02-06T04:43:13.447Z,1.19
2023-02-06T04:44:13.390Z,1.32
2023-02-06T04:45:13.410Z,1.28
2023-02-06T04:46:13.409Z,1.30
2023-02-06T04:47:13.402Z,1.24
2023-02-06T04:48:13.373Z,1.31
2023-02-06T04:49:13.383Z,1.30
2023-02-06T04:50:13.381Z,1.30
2023-02-06T04:51:13.311Z,1.20
2023-02-06T04:52:13.282Z,1.30
2023-02-06T04:53:13.277Z,1.30
2023-02-06T04:54:13.253Z,1.32
2023-02-06T04:55:13.235Z,1.34
2023-02-06T04:56:13.450Z,1.30
2023-02-06T04:57:13.233Z,1.26
2023-02-06T04:58:13.298Z,1.31
2023-02-06T04:59:13.204Z,1.26
2023-02-06T05:00:13.177Z,1.35
2023-02-06T05:01:13.197Z,1.28
2023-02-06T05:02:13.202Z,1.37
2023-02-06T05:03:13.142Z,1.35
2023-02-06T05:04:13.118Z,1.45
2023-02-06T05:05:13.212Z,1.32
2023-02-06T05:06:13.106Z,1.45
2023-02-06T05:07:13.109Z,1.38
2023-02-06T05:08:13.251Z,1.38
2023-02-06T05:09:13.064Z,1.42
2023-02-06T05:10:13.030Z,1.42
2023-02-06T05:11:13.019Z,1.44
2023-02-06T05:12:14.333Z,1.42
2023-02-06T05:13:13.029Z,1.40
2023-02-06T05:14:12.979Z,1.45
2023-02-06T05:15:12.930Z,1.42
2023-02-06T05:16:13.149Z,1.35
2023-02-06T05:17:12.935Z,1.48
2023-02-06T05:18:12.896Z,1.48
2023-02-06T05:19:13.092Z,1.45
2023-02-06T05:20:12.904Z,1.53
2023-02-06T05:21:12.912Z,1.49
2023-02-06T05:22:13.080Z,1.38
2023-02-06T05:23:12.810Z,1.40
2023-02-06T05:24:12.837Z,1.42
2023-02-06T05:25:12.779Z,1.42
2023-02-06T05:26:12.808Z,1.42
2023-02-06T05:27:12.764Z,1.49
2023-02-06T05:28:12.990Z,1.49
2023-02-06T05:29:12.740Z,1.40
2023-02-06T05:30:12.742Z,1.40
2023-02-06T05:31:12.763Z,1.38
2023-02-06T05:32:12.680Z,1.37
2023-02-06T05:33:12.656Z,1.44
2023-02-06T05:34:12.644Z,1.38
2023-02-06T05:35:12.628Z,1.40
2023-02-06T05:36:12.614Z,1.41
2023-02-06T05:37:12.740Z,1.35
2023-02-06T05:38:12.595Z,1.44
2023-02-06T05:39:12.612Z,1.44
2023-02-06T05:40:12.596Z,1.35
2023-02-06T05:41:12.557Z,1.44
2023-02-06T05:42:12.961Z,1.32
2023-02-06T05:43:12.515Z,1.35
2023-02-06T05:44:12.503Z,1.34
2023-02-06T05:45:12.500Z,1.45
2023-02-06T05:46:12.525Z,1.42
2023-02-06T05:47:12.460Z,1.30
2023-02-06T05:48:12.475Z,1.30
2023-02-06T05:49:12.434Z,1.31
2023-02-06T05:50:12.422Z,1.28
2023-02-06T05:51:12.381Z,1.31
2023-02-06T05:52:12.430Z,1.22
2023-02-06T05:53:12.403Z,1.31
2023-02-06T05:54:12.369Z,1.30
2023-02-06T05:55:12.328Z,1.31
2023-02-06T05:56:12.354Z,1.31
2023-02-06T05:57:12.315Z,1.26
2023-02-06T05:58:12.502Z,1.31
2023-02-06T05:59:12.311Z,1.26
2023-02-06T06:00:12.504Z,1.31
2023-02-06T06:01:12.246Z,1.24
2023-02-06T06:02:12.230Z,1.28
2023-02-06T06:03:12.246Z,1.30
2023-02-06T06:04:12.274Z,1.28
2023-02-06T06:05:12.235Z,1.24
2023-02-06T06:06:12.200Z,1.30
2023-02-06T06:07:12.185Z,1.28
2023-02-06T06:08:12.210Z,1.34
2023-02-06T06:09:12.162Z,1.34
2023-02-06T06:10:12.153Z,1.28
2023-02-06T06:11:12.170Z,1.23
2023-02-06T06:12:12.107Z,1.28
2023-02-06T06:13:12.077Z,1.34
2023-02-06T06:14:12.120Z,1.30
2023-02-06T06:15:12.255Z,1.32
2023-02-06T06:16:12.135Z,1.34
2023-02-06T06:17:12.013Z,1.23
2023-02-06T06:18:12.017Z,1.28
2023-02-06T06:19:12.005Z,1.28
2023-02-06T06:20:11.978Z,1.32
2023-02-06T06:21:12.017Z,1.26
2023-02-06T06:22:11.948Z,1.31
2023-02-06T06:23:11.968Z,1.28
2023-02-06T06:24:11.894Z,1.24
2023-02-06T06:25:11.904Z,1.23
2023-02-06T06:26:11.895Z,1.35
2023-02-06T06:27:12.055Z,1.31
2023-02-06T06:28:12.109Z,1.40
2023-02-06T06:29:11.840Z,1.30
2023-02-06T06:30:11.854Z,1.30
2023-02-06T06:31:12.010Z,1.30
2023-02-06T06:32:11.813Z,1.32
2023-02-06T06:33:11.813Z,1.32
2023-02-06T06:34:11.752Z,1.31
2023-02-06T06:35:11.787Z,1.31
2023-02-06T06:36:14.240Z,1.35
2023-02-06T06:37:11.910Z,1.30
2023-02-06T06:38:11.683Z,1.31
2023-02-06T06:39:11.721Z,1.35
2023-02-06T06:40:11.661Z,1.49
2023-02-06T06:41:11.669Z,1.32
2023-02-06T06:42:11.642Z,1.44
2023-02-06T06:43:11.624Z,1.35
2023-02-06T06:44:11.631Z,1.37
2023-02-06T06:45:11.610Z,1.41
2023-02-06T06:46:11.570Z,1.45
2023-02-06T06:47:11.582Z,1.35
2023-02-06T06:48:11.780Z,1.42
2023-02-06T06:49:11.549Z,1.49
2023-02-06T06:50:11.549Z,1.38
2023-02-06T06:51:11.559Z,1.35
2023-02-06T06:52:24.138Z,1.38
2023-02-06T06:53:11.493Z,1.38
2023-02-06T06:54:11.451Z,1.38
2023-02-06T06:55:11.452Z,1.40
2023-02-06T06:56:11.488Z,1.44
2023-02-06T06:57:11.457Z,1.50
2023-02-06T06:58:11.377Z,1.41
2023-02-06T06:59:11.427Z,1.42
2023-02-06T07:00:11.400Z,1.45
2023-02-06T07:01:11.665Z,1.45
2023-02-06T07:02:11.340Z,1.44
2023-02-06T07:03:11.447Z,1.44
2023-02-06T07:04:11.313Z,1.44
2023-02-06T07:05:11.332Z,1.41
2023-02-06T07:06:11.297Z,1.40
2023-02-06T07:07:11.332Z,1.35
2023-02-06T07:08:11.242Z,1.32
2023-02-06T07:09:11.422Z,1.31
2023-02-06T07:10:11.236Z,1.30
2023-02-06T07:11:11.181Z,1.26
2023-02-06T07:12:11.172Z,1.20
2023-02-06T07:13:11.179Z,1.30
2023-02-06T07:14:11.160Z,1.28
2023-02-06T07:15:11.178Z,1.31
2023-02-06T07:16:11.161Z,1.26
2023-02-06T07:17:11.100Z,1.31
2023-02-06T07:18:11.966Z,1.23
2023-02-06T07:19:11.290Z,1.30
2023-02-06T07:20:11.250Z,1.28
2023-02-06T07:21:11.082Z,1.24
2023-02-06T07:22:11.029Z,1.31
2023-02-06T07:23:11.056Z,1.31
2023-02-06T07:24:11.016Z,1.44
2023-02-06T07:25:10.989Z,1.38
2023-02-06T07:26:11.003Z,1.42
2023-02-06T07:27:10.977Z,1.48
2023-02-06T07:28:10.965Z,1.42
2023-02-06T07:29:11.195Z,1.40
2023-02-06T07:30:10.913Z,1.50
2023-02-06T07:31:10.904Z,1.35
2023-02-06T07:32:10.877Z,1.38
2023-02-06T07:33:10.857Z,1.41
2023-02-06T07:34:10.845Z,1.42
2023-02-06T07:35:10.864Z,1.37
2023-02-06T07:36:10.827Z,1.38
2023-02-06T07:37:10.824Z,1.48
2023-02-06T07:38:10.827Z,1.55
2023-02-06T07:39:10.806Z,1.49
2023-02-06T07:40:10.775Z,1.55
2023-02-06T07:41:12.639Z,1.62
2023-02-06T07:42:10.735Z,1.59
2023-02-06T07:43:10.725Z,1.59
2023-02-06T07:44:10.715Z,1.58
2023-02-06T07:45:10.717Z,1.73
2023-02-06T07:46:10.678Z,1.59
2023-02-06T07:47:10.677Z,1.59
2023-02-06T07:48:10.638Z,1.71
2023-02-06T07:49:10.616Z,1.74
2023-02-06T07:50:10.610Z,1.73
2023-02-06T07:51:11.019Z,1.67
2023-02-06T07:52:10.584Z,1.77
2023-02-06T07:53:10.561Z,1.74
2023-02-06T07:54:10.546Z,1.76
2023-02-06T07:55:10.555Z,1.73
2023-02-06T07:56:10.734Z,1.77
2023-02-06T07:57:10.503Z,1.78
2023-02-06T07:58:10.488Z,1.81
2023-02-06T07:59:10.463Z,1.81
2023-02-06T08:00:10.520Z,1.81
2023-02-06T08:01:10.488Z,1.80
2023-02-06T08:02:10.444Z,1.88
2023-02-06T08:03:10.404Z,1.91
2023-02-06T08:04:10.425Z,1.85
2023-02-06T08:05:10.376Z,1.91
2023-02-06T08:06:10.390Z,1.89
2023-02-06T08:07:10.344Z,1.78
2023-02-06T08:08:10.315Z,1.97
2023-02-06T08:09:10.339Z,1.78
2023-02-06T08:10:10.332Z,1.81
2023-02-06T08:11:10.321Z,1.85
2023-02-06T08:12:11.875Z,1.85
2023-02-06T08:13:10.272Z,1.95
2023-02-06T08:14:10.259Z,1.87
2023-02-06T08:15:10.246Z,1.92
2023-02-06T08:16:10.214Z,1.78
2023-02-06T08:17:10.246Z,1.92
2023-02-06T08:18:10.231Z,1.91
2023-02-06T08:19:10.155Z,1.99
2023-02-06T08:20:10.184Z,1.97
2023-02-06T08:21:10.193Z,1.99
2023-02-06T08:22:10.346Z,2.07
2023-02-06T08:23:10.119Z,2.00
2023-02-06T08:24:10.111Z,1.99
2023-02-06T08:25:10.072Z,1.99
2023-02-06T08:26:10.073Z,1.99
2023-02-06T08:27:10.061Z,2.00
2023-02-06T08:28:10.082Z,2.00
2023-02-06T08:29:10.024Z,1.99
2023-02-06T08:30:10.018Z,2.04
2023-02-06T08:31:10.160Z,2.11
2023-02-06T08:32:10.008Z,1.99
2023-02-06T08:33:10.396Z,2.13
2023-02-06T08:34:09.981Z,2.04
2023-02-06T08:35:09.935Z,2.07
2023-02-06T08:36:09.943Z,2.15
2023-02-06T08:37:09.901Z,2.14
2023-02-06T08:38:09.894Z,2.07
2023-02-06T08:39:09.914Z,2.20
2023-02-06T08:40:09.883Z,2.13
2023-02-06T08:41:09.883Z,2.18
2023-02-06T08:42:09.866Z,2.24
2023-02-06T08:43:09.820Z,2.28
2023-02-06T08:44:09.832Z,2.17
2023-02-06T08:45:09.780Z,2.35
2023-02-06T08:46:09.860Z,2.28
2023-02-06T08:47:10.744Z,2.33
2023-02-06T08:48:09.743Z,2.31
2023-02-06T08:49:09.756Z,2.43
2023-02-06T08:50:09.712Z,2.44
2023-02-06T08:51:09.712Z,2.46
2023-02-06T08:52:09.702Z,2.43
2023-02-06T08:53:09.661Z,2.50
2023-02-06T08:54:09.638Z,2.47
2023-02-06T08:55:09.657Z,2.46
2023-02-06T08:56:09.610Z,2.49
2023-02-06T08:57:09.629Z,2.43
2023-02-06T08:58:09.583Z,2.46
2023-02-06T08:59:09.604Z,2.51
2023-02-06T09:00:09.563Z,2.50
2023-02-06T09:01:09.625Z,2.49
2023-02-06T09:02:09.611Z,2.53
2023-02-06T09:03:09.540Z,2.47
2023-02-06T09:04:09.500Z,2.51
2023-02-06T09:05:09.518Z,2.57
2023-02-06T09:06:10.579Z,2.57
2023-02-06T09:07:09.489Z,2.53
2023-02-06T09:08:09.461Z,2.61
2023-02-06T09:09:09.492Z,2.69
2023-02-06T09:10:18.981Z,2.62
2023-02-06T09:11:09.438Z,2.61
2023-02-06T09:12:09.380Z,2.69
2023-02-06T09:13:09.371Z,2.72
2023-02-06T09:14:09.420Z,2.67
2023-02-06T09:15:09.336Z,2.72
2023-02-06T09:16:09.369Z,2.72
2023-02-06T09:17:09.375Z,2.71
2023-02-06T09:18:09.313Z,2.67
2023-02-06T09:19:09.480Z,2.68
2023-02-06T09:20:09.274Z,2.68
2023-02-06T09:21:09.389Z,2.75
2023-02-06T09:22:09.446Z,2.74
2023-02-06T09:23:09.215Z,2.83
2023-02-06T09:24:09.205Z,2.79
2023-02-06T09:25:09.203Z,2.72
2023-02-06T09:26:09.174Z,2.75
2023-02-06T09:27:09.167Z,2.79
2023-02-06T09:28:09.372Z,2.83
2023-02-06T09:29:09.145Z,2.77
2023-02-06T09:30:09.635Z,2.71
2023-02-06T09:31:09.273Z,2.74
2023-02-06T09:32:09.106Z,2.67
2023-02-06T09:33:09.103Z,2.68
2023-02-06T09:34:09.056Z,2.74
2023-02-06T09:35:09.055Z,2.69
2023-02-06T09:36:09.061Z,2.77
2023-02-06T09:37:09.064Z,2.71
2023-02-06T09:38:09.031Z,2.71
2023-02-06T09:39:08.984Z,2.71
2023-02-06T09:40:08.967Z,2.75
2023-02-06T09:41:08.950Z,2.82
2023-02-06T09:42:08.972Z,2.77
2023-02-06T09:43:08.954Z,2.85
2023-02-06T09:44:08.961Z,2.79
2023-02-06T09:45:08.920Z,2.69
2023-02-06T09:46:08.897Z,2.67
2023-02-06T09:47:08.907Z,2.71
2023-02-06T09:48:08.869Z,2.68
2023-02-06T09:49:08.858Z,2.69
2023-02-06T09:50:09.019Z,2.64
2023-02-06T09:51:08.806Z,2.68
2023-02-06T09:52:08.819Z,2.68
2023-02-06T09:53:08.833Z,2.74
2023-02-06T09:54:08.847Z,2.64
2023-02-06T09:55:08.947Z,2.67
2023-02-06T09:56:08.748Z,2.65
2023-02-06T09:57:08.769Z,2.74
2023-02-06T09:58:08.711Z,2.68
2023-02-06T09:59:08.895Z,2.67
2023-02-06T10:00:08.693Z,2.64
2023-02-06T10:01:08.701Z,2.64
2023-02-06T10:02:08.645Z,2.68
2023-02-06T10:03:08.670Z,2.62
2023-02-06T10:04:08.694Z,2.69
2023-02-06T10:05:08.643Z,2.72
2023-02-06T10:06:08.641Z,2.67
2023-02-06T10:07:08.603Z,2.71
2023-02-06T10:08:08.632Z,2.54
2023-02-06T10:09:08.578Z,2.69
2023-02-06T10:10:08.576Z,2.69
2023-02-06T10:11:08.553Z,2.68
2023-02-06T10:12:08.720Z,2.68
2023-02-06T10:13:08.527Z,2.68
2023-02-06T10:14:08.470Z,2.71
2023-02-06T10:15:08.445Z,2.64
2023-02-06T10:16:10.447Z,2.75
2023-02-06T10:17:08.426Z,2.77
2023-02-06T10:18:08.429Z,2.77
2023-02-06T10:19:08.439Z,2.83
2023-02-06T10:20:08.394Z,2.80
2023-02-06T10:21:08.375Z,2.90
2023-02-06T10:22:08.363Z,2.97
2023-02-06T10:23:08.537Z,2.93
2023-02-06T10:24:08.327Z,2.95
2023-02-06T10:25:08.480Z,3.05
2023-02-06T10:26:08.294Z,3.13
2023-02-06T10:27:08.280Z,3.19
2023-02-06T10:28:08.333Z,3.03
2023-02-06T10:29:08.262Z,3.13
2023-02-06T10:30:08.248Z,3.03
2023-02-06T10:31:08.427Z,3.10
2023-02-06T10:32:08.230Z,3.03
2023-02-06T10:33:14.310Z,3.03
2023-02-06T10:34:08.182Z,3.11
2023-02-06T10:35:08.199Z,2.98
2023-02-06T10:36:08.165Z,2.98
2023-02-06T10:37:08.358Z,2.90
2023-02-06T10:38:08.165Z,2.97
2023-02-06T10:39:08.165Z,2.87
2023-02-06T10:40:08.122Z,2.89
2023-02-06T10:41:08.142Z,2.95
2023-02-06T10:42:08.107Z,2.93
2023-02-06T10:43:08.090Z,2.93
2023-02-06T10:44:08.271Z,2.93
2023-02-06T10:45:19.339Z,2.95
2023-02-06T10:46:08.029Z,2.89
2023-02-06T10:47:08.137Z,2.82
2023-02-06T10:48:07.997Z,2.80
2023-02-06T10:49:07.970Z,2.86
2023-02-06T10:50:07.976Z,2.74
2023-02-06T10:51:08.164Z,2.72
2023-02-06T10:52:07.939Z,2.72
2023-02-06T10:53:07.950Z,2.71
2023-02-06T10:54:07.901Z,2.75
2023-02-06T10:55:07.911Z,2.85
2023-02-06T10:56:07.877Z,2.71
2023-02-06T10:57:07.870Z,2.77
2023-02-06T10:58:07.858Z,2.72
2023-02-06T10:59:07.880Z,2.72
2023-02-06T11:00:07.816Z,2.65
2023-02-06T11:01:23.726Z,2.67
2023-02-06T11:02:07.893Z,2.72
2023-02-06T11:03:08.538Z,2.80
2023-02-06T11:04:07.767Z,2.77
2023-02-06T11:05:07.767Z,2.69
2023-02-06T11:06:07.712Z,2.64
2023-02-06T11:07:07.702Z,2.75
2023-02-06T11:08:07.906Z,2.75
2023-02-06T11:09:07.750Z,2.89
2023-02-06T11:10:07.678Z,2.85
2023-02-06T11:11:07.670Z,2.85
2023-02-06T11:12:07.627Z,2.75
2023-02-06T11:13:07.688Z,2.69
2023-02-06T11:14:07.651Z,2.67
2023-02-06T11:15:07.601Z,2.75
2023-02-06T11:16:07.618Z,2.77
2023-02-06T11:17:07.592Z,2.65
2023-02-06T11:18:07.558Z,2.65
2023-02-06T11:19:07.565Z,2.61
2023-02-06T11:20:07.514Z,2.67
2023-02-06T11:21:07.549Z,2.62
2023-02-06T11:22:07.482Z,2.67
2023-02-06T11:23:07.684Z,2.61
2023-02-06T11:24:07.492Z,2.49
2023-02-06T11:25:07.468Z,2.62
2023-02-06T11:26:07.417Z,2.56
2023-02-06T11:27:07.457Z,2.64
2023-02-06T11:28:07.471Z,2.57
2023-02-06T11:29:07.403Z,2.49
2023-02-06T11:30:07.434Z,2.47
2023-02-06T11:31:07.416Z,2.49
2023-02-06T11:32:07.343Z,2.51
2023-02-06T11:33:07.352Z,2.65
2023-02-06T11:34:07.327Z,2.49
2023-02-06T11:35:07.354Z,2.53
2023-02-06T11:36:07.289Z,2.62
2023-02-06T11:37:07.293Z,2.47
2023-02-06T11:38:07.295Z,2.57
2023-02-06T11:39:07.253Z,2.65
2023-02-06T11:40:07.257Z,2.51
2023-02-06T11:41:07.208Z,2.65
2023-02-06T11:42:07.181Z,2.47
2023-02-06T11:43:07.222Z,2.47
2023-02-06T11:44:07.204Z,2.54
2023-02-06T11:45:07.203Z,2.61
2023-02-06T11:46:07.226Z,2.64
2023-02-06T11:47:07.155Z,2.60
2023-02-06T11:48:07.145Z,2.71
2023-02-06T11:49:07.076Z,2.67
2023-02-06T11:50:07.260Z,2.65
2023-02-06T11:51:07.036Z,2.69
2023-02-06T11:52:07.268Z,2.75
2023-02-06T11:53:07.069Z,2.67
2023-02-06T11:54:07.008Z,2.69
2023-02-06T11:55:06.992Z,2.60
2023-02-06T11:56:07.006Z,2.67
2023-02-06T11:57:07.018Z,2.67
2023-02-06T11:58:06.946Z,2.64
2023-02-06T11:59:07.278Z,2.60
2023-02-06T12:00:06.912Z,2.64
2023-02-06T12:01:06.939Z,2.64
2023-02-06T12:02:06.976Z,2.69
2023-02-06T12:03:06.986Z,2.64
2023-02-06T12:04:06.878Z,2.67
2023-02-06T12:05:06.824Z,2.65
2023-02-06T12:06:06.840Z,2.71
2023-02-06T12:07:06.803Z,2.64
2023-02-06T12:08:06.791Z,2.62
2023-02-06T12:09:06.789Z,2.67
2023-02-06T12:10:06.982Z,2.62
2023-02-06T12:11:06.977Z,2.56
2023-02-06T12:12:06.735Z,2.57
2023-02-06T12:13:06.727Z,2.51
2023-02-06T12:14:06.716Z,2.54
2023-02-06T12:15:29.514Z,2.47
2023-02-06T12:16:06.662Z,2.50
2023-02-06T12:17:06.769Z,2.51
2023-02-06T12:18:06.649Z,2.46
2023-02-06T12:19:06.643Z,2.35
2023-02-06T12:20:06.636Z,2.39
2023-02-06T12:21:06.883Z,2.44
2023-02-06T12:22:06.827Z,2.47
2023-02-06T12:23:06.578Z,2.49
2023-02-06T12:24:06.689Z,2.46
2023-02-06T12:25:06.749Z,2.46
2023-02-06T12:26:06.541Z,2.49
2023-02-06T12:27:06.532Z,2.46
2023-02-06T12:28:06.541Z,2.46
2023-02-06T12:29:06.506Z,2.50
2023-02-06T12:30:06.482Z,2.49
2023-02-06T12:31:06.527Z,2.49
2023-02-06T12:32:06.449Z,2.51
2023-02-06T12:33:06.674Z,2.49
2023-02-06T12:34:06.401Z,2.53
2023-02-06T12:35:06.389Z,2.46
2023-02-06T12:36:06.365Z,2.49
2023-02-06T12:37:06.579Z,2.46
2023-02-06T12:38:06.377Z,2.42
2023-02-06T12:39:06.373Z,2.47
2023-02-06T12:40:06.318Z,2.47
2023-02-06T12:41:06.303Z,2.47
2023-02-06T12:42:06.496Z,2.47
2023-02-06T12:43:06.356Z,2.43
2023-02-06T12:44:06.438Z,2.46
2023-02-06T12:45:06.263Z,2.49
2023-02-06T12:46:06.238Z,2.44
2023-02-06T12:47:06.229Z,2.44
2023-02-06T12:48:06.413Z,2.39
2023-02-06T12:49:06.204Z,2.47
2023-02-06T12:50:06.152Z,2.49
2023-02-06T12:51:06.133Z,2.38
2023-02-06T12:52:06.161Z,2.44
2023-02-06T12:53:06.137Z,2.42
2023-02-06T12:54:06.359Z,2.43
2023-02-06T12:55:06.126Z,2.43
2023-02-06T12:56:06.070Z,2.39
2023-02-06T12:57:06.112Z,2.36
2023-02-06T12:58:06.262Z,2.36
2023-02-06T12:59:06.021Z,2.28
2023-02-06T13:00:06.022Z,2.28
2023-02-06T13:01:08.312Z,2.28
2023-02-06T13:02:06.073Z,2.33
2023-02-06T13:03:06.027Z,2.25
2023-02-06T13:04:05.979Z,2.17
2023-02-06T13:05:06.011Z,2.13
2023-02-06T13:06:05.930Z,2.15
2023-02-06T13:07:05.964Z,2.22
2023-02-06T13:08:05.873Z,2.07
2023-02-06T13:09:05.877Z,2.11
2023-02-06T13:10:05.876Z,2.15
2023-02-06T13:11:05.884Z,2.15
2023-02-06T13:12:06.033Z,2.02
2023-02-06T13:13:05.852Z,2.11
2023-02-06T13:14:05.820Z,2.10
2023-02-06T13:15:05.788Z,2.10
2023-02-06T13:16:05.846Z,2.02
2023-02-06T13:17:05.841Z,2.06
2023-02-06T13:18:05.768Z,2.04